This is the latest recevied weather packets stored in our database for station/object W1WRA. If no packets are shown the sender has not sent any weather packets the latest 10 day(s).
| Time | Temp. | Humidity | Pressure | Rain* | Wind** | Luminosity | Snow |
|---|---|---|---|---|---|---|---|
| 1777998938 | 28.33° C | 36% | 1007.2 hPa | 0 mm | - | 796 W/m² | - |
| 1777997735 | 27.78° C | 37% | 1007.4 hPa | 0 mm | - | 856 W/m² | - |
| 1777990517 | 21.11° C | 50% | 1008.9 hPa | 0 mm | - | 203 W/m² | - |
| 1777981527 | 11.67° C | 74% | 1009.2 hPa | 0 mm | - | 45 W/m² | - |
| 1777978528 | 8.89° C | 83% | 1008.8 hPa | 0 mm | - | 31 W/m² | - |
| 1777973129 | 8.33° C | 84% | 1009 hPa | 0 mm | - | 0 W/m² | - |
| 1777970735 | 8.33° C | 84% | 1009 hPa | 0 mm | - | 0 W/m² | - |
| 1777968916 | 8.33° C | 83% | 1009.2 hPa | 0 mm | - | 0 W/m² | - |
| 1777967717 | 8.33° C | 82% | 1009.2 hPa | 0 mm | - | 0 W/m² | - |
| 1777964717 | 9.44° C | 79% | 1009.3 hPa | 0 mm | - | 0 W/m² | - |
| 1777964118 | 9.44° C | 78% | 1009.3 hPa | 0 mm | - | 0 W/m² | - |
| 1777959916 | 10.56° C | 71% | 1009.6 hPa | 0 mm | - | 0 W/m² | - |
| 1777951517 | 13.89° C | 59% | 1009.1 hPa | 0 mm | - | 0 W/m² | - |
| 1777950318 | 14.44° C | 56% | 1009.1 hPa | 0 mm | - | 0 W/m² | - |
| 1777949718 | 13.89° C | 58% | 1009.1 hPa | 0 mm | - | 0 W/m² | - |
| 1777945516 | 13.89° C | 56% | 1009 hPa | 0 mm | - | 0 W/m² | - |
| 1777935918 | 19.44° C | 38% | 1006.3 hPa | 0 mm | - | 17 W/m² | - |
| 1777932316 | 21.11° C | 35% | 1006 hPa | 0 mm | - | 52 W/m² | - |
| 1777930516 | 21.11° C | 35% | 1006 hPa | 0 mm | - | 57 W/m² | - |
| 1777926318 | 21.11° C | 34% | 1006 hPa | 0 mm | - | 156 W/m² | - |
| 1777924518 | 21.67° C | 34% | 1006 hPa | 0 mm | - | 154 W/m² | - |
| 1777923938 | 21.11° C | 34% | 1006.1 hPa | 0 mm | - | 75 W/m² | - |
| 1777910136 | 20° C | 34% | 1007.5 hPa | 0 mm | - | 884 W/m² | - |
| 1777903517 | 16.11° C | 42% | 1008.7 hPa | 0 mm | - | 342 W/m² | - |
| 1777902937 | 15.56° C | 44% | 1008.8 hPa | 0 mm | - | 324 W/m² | - |
* Rain latest hour (hover to see other rain measurements)
** Current wind speed in m/s (hover to see current wind gust speed)